»·PEaware :: VRD554 KSAN-KLAS

VRD554 :: KSAN-KLAS

FLIGHT INFORMATION

Flight Status: Arrived
Operator:
Virgin America
More flights by this operator :: More flights under this callsign
Pilot: Shawn G. (7208)
Aircraft: AIRBUS A320
(A320)
More flights by this aircraft type
Origin: KSAN San Diego Intl-Lindbergh
United States
Destination: KLAS McCarran Intl
United States
More flights between these airports :: More routes between these airports
Route: PADRZ2 CHKNN SEBBY YELAH MISEN KEPEC6
File this flight plan on PilotEdge
Remarks:
Altitude:
(Current/Filed)
37,555ft
Speed:
(Current/Filed)
448kts
Departed: 25-Dec-17 09:46 AM
Arrived: 25-Dec-17 10:49 AM
Distance/Time
Traveled:
225nm/1:03
Distance/Time
To Go:
Arrived

Flight Plot

Page will automatically refresh every two minutes.

Flight plan parsing failed; only flown route is shown


Map Options




Map Legend


Flown Route
Filed Route
Departure Airport
Arrival Airport
Navaid (VOR, NDB)
Fix

Horizontal Profiles

Position Reports

Time Latitude Longitude Heading Altitude Ground
Speed
25-Dec-17 09:39 32.734081 -117.201792 178 26ft 0kts
25-Dec-17 09:40 32.734081 -117.201792 178 26ft 0kts
25-Dec-17 09:41 32.734081 -117.201792 178 26ft 0kts
25-Dec-17 09:42 32.734368 -117.201807 163 26ft 2kts
25-Dec-17 09:43 32.734707 -117.202321 108 26ft 2kts
25-Dec-17 09:44 32.734466 -117.202839 6 26ft 0kts
25-Dec-17 09:45 32.733897 -117.202764 354 26ft 0kts
25-Dec-17 09:46 32.733838 -117.202766 14 26ft 0kts
25-Dec-17 09:47 32.733838 -117.202766 14 26ft 0kts
25-Dec-17 09:48 32.735435 -117.201932 80 26ft 11kts
25-Dec-17 09:49 32.734155 -117.196343 106 26ft 25kts
25-Dec-17 09:50 32.731859 -117.186894 105 26ft 34kts
25-Dec-17 09:51 32.729654 -117.177698 105 26ft 12kts
25-Dec-17 09:52 32.731048 -117.179295 284 26ft 81kts
25-Dec-17 09:53 32.748443 -117.227686 304 2634ft 191kts
25-Dec-17 09:54 32.783300 -117.289762 303 5821ft 261kts
25-Dec-17 09:55 32.825814 -117.359275 306 9777ft 274kts
25-Dec-17 09:56 32.876352 -117.437431 306 12095ft 336kts
25-Dec-17 09:57 32.934899 -117.528387 306 14982ft 355kts
25-Dec-17 09:58 32.995654 -117.623176 305 17691ft 367kts
25-Dec-17 09:59 33.058169 -117.720424 308 20207ft 375kts
25-Dec-17 10:00 33.134930 -117.801847 315 22461ft 383kts
25-Dec-17 10:01 33.216998 -117.884793 316 24314ft 394kts
25-Dec-17 10:02 33.303177 -117.968603 316 25964ft 405kts
25-Dec-17 10:03 33.390975 -118.054476 316 27492ft 414kts
25-Dec-17 10:04 33.480393 -118.142206 316 28882ft 422kts
25-Dec-17 10:05 33.572367 -118.231044 321 30072ft 433kts
25-Dec-17 10:06 33.687812 -118.277249 352 31306ft 460kts
25-Dec-17 10:07 33.811484 -118.229335 32 32439ft 495kts
25-Dec-17 10:08 33.899507 -118.099152 50 33472ft 508kts
25-Dec-17 10:09 33.981353 -117.960932 50 34513ft 508kts
25-Dec-17 10:10 34.062610 -117.823056 50 35513ft 507kts
25-Dec-17 10:11 34.149017 -117.690436 45 36444ft 503kts
25-Dec-17 10:12 34.237389 -117.561034 45 37217ft 504kts
25-Dec-17 10:13 34.325670 -117.431324 45 37162ft 502kts
25-Dec-17 10:14 34.413753 -117.301424 46 37104ft 501kts
25-Dec-17 10:15 34.501962 -117.170870 46 37126ft 502kts
25-Dec-17 10:16 34.590154 -117.039855 46 37142ft 502kts
25-Dec-17 10:17 34.674771 -116.913691 45 37276ft 502kts
25-Dec-17 10:18 34.762536 -116.782351 45 36201ft 502kts
25-Dec-17 10:19 34.850154 -116.652283 40 33708ft 494kts
25-Dec-17 10:20 34.953827 -116.548190 31 30642ft 480kts
25-Dec-17 10:21 35.057133 -116.447798 31 25996ft 469kts
25-Dec-17 10:22 35.150976 -116.342998 40 23149ft 466kts
25-Dec-17 10:23 35.239931 -116.231516 40 21160ft 458kts
25-Dec-17 10:24 35.327581 -116.121278 41 19197ft 446kts
25-Dec-17 10:25 35.412152 -116.014563 41 17290ft 430kts
25-Dec-17 10:26 35.493942 -115.911025 42 15455ft 417kts
25-Dec-17 10:27 35.571756 -115.812197 42 14067ft 380kts
25-Dec-17 10:28 35.639907 -115.725458 42 13345ft 325kts
25-Dec-17 10:29 35.698715 -115.650434 42 13036ft 303kts
25-Dec-17 10:30 35.759481 -115.579251 18 13033ft 298kts
25-Dec-17 10:31 35.839705 -115.570827 359 13044ft 290kts
25-Dec-17 10:32 35.920375 -115.566410 359 13036ft 291kts
25-Dec-17 10:33 35.984721 -115.520989 65 12485ft 294kts
25-Dec-17 10:34 36.014359 -115.427695 65 11347ft 288kts
25-Dec-17 10:35 36.028434 -115.337336 94 10584ft 272kts
25-Dec-17 10:36 36.021589 -115.245094 95 9532ft 269kts
25-Dec-17 10:37 36.015111 -115.153422 92 8469ft 266kts
25-Dec-17 10:38 36.009425 -115.067685 91 8033ft 238kts
25-Dec-17 10:39 36.004601 -114.985320 91 8033ft 242kts
25-Dec-17 10:40 35.999617 -114.902054 92 8035ft 243kts
25-Dec-17 10:41 35.994553 -114.818820 92 8035ft 243kts
25-Dec-17 10:42 35.989062 -114.735621 92 8035ft 243kts
25-Dec-17 10:43 35.983728 -114.655607 92 8024ft 221kts
25-Dec-17 10:44 36.007184 -114.604506 2 8026ft 182kts
25-Dec-17 10:45 36.056840 -114.604335 324 8026ft 180kts
25-Dec-17 10:46 36.068386 -114.663558 277 8030ft 183kts
25-Dec-17 10:47 36.073247 -114.726407 276 8031ft 183kts
25-Dec-17 10:48 36.074920 -114.789539 272 7445ft 183kts
25-Dec-17 10:49 36.074289 -114.852376 271 6424ft 182kts
25-Dec-17 10:50 36.074126 -114.914524 271 5459ft 181kts
25-Dec-17 10:51 36.073947 -114.975444 271 4520ft 165kts
25-Dec-17 10:52 36.073844 -115.025680 271 3737ft 133kts
25-Dec-17 10:53 36.073765 -115.071590 270 3037ft 133kts
25-Dec-17 10:54 36.073664 -115.117385 270 2335ft 133kts
25-Dec-17 10:55 36.075055 -115.146317 332 2150ft 26kts
25-Dec-17 10:56 36.077615 -115.143950 96 2150ft 17kts
25-Dec-17 10:57 36.080603 -115.142382 358 2150ft 22kts
25-Dec-17 10:58 36.083644 -115.141046 43 2150ft 13kts
25-Dec-17 10:59 36.084921 -115.139517 354 2150ft 8kts
25-Dec-17 11:00 36.085268 -115.139527 359 2150ft 0kts

Navigation Log

Ident Type
Flight plan parsing failed, navigation log unavailable